createdAt,value
2022-10-19T00:16:21.415Z,187
2022-10-19T00:36:21.487Z,183
2022-10-19T00:56:21.417Z,181
2022-10-19T01:16:21.469Z,183
2022-10-19T01:36:21.443Z,185
2022-10-19T01:56:21.526Z,184
2022-10-19T02:16:21.458Z,184
2022-10-19T02:36:21.488Z,181
2022-10-19T02:56:21.497Z,176
2022-10-19T03:16:21.506Z,181
2022-10-19T03:36:21.009Z,180
2022-10-19T04:16:21.535Z,177
2022-10-19T04:36:21.329Z,176
2022-10-19T04:56:21.549Z,178
2022-10-19T05:16:21.615Z,178
2022-10-19T05:36:21.554Z,175
2022-10-19T05:56:21.150Z,179
2022-10-19T06:16:21.589Z,177
2022-10-19T06:36:21.885Z,179
2022-10-19T06:56:21.615Z,183
2022-10-19T07:16:21.823Z,184
2022-10-19T07:36:21.621Z,182
2022-10-19T07:56:22.141Z,185
2022-10-19T08:16:21.650Z,193
2022-10-19T08:36:21.161Z,197
2022-10-19T08:56:32.479Z,199
2022-10-19T09:16:21.682Z,196
2022-10-19T09:36:22.672Z,195
2022-10-19T09:56:21.696Z,191
2022-10-19T10:16:21.726Z,191
2022-10-19T10:56:21.712Z,193
2022-10-19T11:16:21.720Z,189
2022-10-19T11:36:21.698Z,183
2022-10-19T11:56:21.220Z,179
2022-10-19T12:16:21.703Z,180
2022-10-19T12:36:21.679Z,181
2022-10-19T12:56:21.687Z,177
2022-10-19T13:16:21.683Z,176
2022-10-19T13:36:21.691Z,174
2022-10-19T13:56:21.683Z,176
2022-10-19T14:16:21.684Z,174
2022-10-19T14:36:21.679Z,170
2022-10-19T14:56:21.505Z,163
2022-10-19T15:16:21.664Z,160
2022-10-19T15:36:21.656Z,158
2022-10-19T15:56:21.692Z,158
2022-10-19T16:16:21.454Z,162
2022-10-19T16:36:21.642Z,169
2022-10-19T16:56:21.640Z,174
2022-10-19T17:16:21.753Z,171
2022-10-19T17:36:21.633Z,176
2022-10-19T17:56:21.658Z,178
2022-10-19T18:16:21.628Z,177
2022-10-19T18:36:21.651Z,181
2022-10-19T18:56:21.556Z,182
2022-10-19T19:16:21.690Z,179
2022-10-19T19:36:21.476Z,182
2022-10-19T19:56:21.673Z,181
2022-10-19T20:16:22.669Z,178
2022-10-19T20:36:21.656Z,182
2022-10-19T20:56:21.678Z,179
2022-10-19T21:16:21.683Z,178
2022-10-19T21:36:21.678Z,179
2022-10-19T21:56:21.695Z,178
2022-10-19T22:16:21.701Z,183
2022-10-19T22:36:21.205Z,183
2022-10-19T22:56:21.232Z,182
2022-10-19T23:16:21.763Z,181
2022-10-19T23:36:21.810Z,184
2022-10-19T23:56:21.754Z,183
